Canyon City, OR

8:13 PM PST on February 13, 2016 (GMT -0800)
Grant County Regional

Weather History for KGCD - August, 2014

Change the Weather History Date:

Thursday, August 7, 2014

  Actual Average (KBNO) Record (KBNO)
Temperature  
Mean Temperature 72 °F 67 °F  
Max Temperature 88 °F 87 °F 100 °F (1990)
Min Temperature 55 °F 47 °F 36 °F (1996)
Degree Days  
Heating Degree Days 0 1  
Month to date heating degree days 7  
Since 1 June heating degree days 283  
Since 1 July heating degree days 65  
Cooling Degree Days 6 3  
Month to date cooling degree days 27  
Year to date cooling degree days 159  
Since 1 June cooling degree days 156  
Growing Degree Days 22 (Base 50)    
Moisture  
Dew Point 34 °F    
Average Humidity 27    
Maximum Humidity 51    
Minimum Humidity 14    
Precipitation  
Precipitation 0.00 in 0.01 in 0.72 in (1995)
Month to date precipitation 0.08  
Year to date precipitation 6.70  
Sea Level Pressure  
Sea Level Pressure 30.07 in    
Wind  
Wind Speed 4 mph (WNW)    
Max Wind Speed 13 mph    
Max Gust Speed 9 mph    
Visibility 9 miles    
Events      
T = Trace of Precipitation, MM = Missing Value Source: NWS Daily Summary

Daily Weather History Graph

Daily Weather History Graph

Search for Another Location

Airport or City:

Trip Planner

Search our weather history database for the weather conditions in past years. The results will help you decide how hot, cold, wet, or windy it might be!

Date:

Astronomy

Aug. 07, 2014 Rise Set
Actual Time 5:49 AM PDT 8:12 PM PDT
Civil Twilight 5:17 AM PDT 8:45 PM PDT
Nautical Twilight 4:36 AM PDT 9:25 PM PDT
Astronomical Twilight 3:51 AM PDT 10:10 PM PDT
Moon 5:35 PM PDT (8/7) 2:22 AM PDT (8/7)
Length of Visible Light 15h 27m
Length of Day
14h 22m
Waxing Gibbous, 87% of the Moon is Illuminated
Aug 7
Waxing Gibbous
Aug 10
Full
Aug 17
Last Quarter
Aug 25
New
Sep 2
First Quarter

Hourly Weather History & Observations

Time (PDT) Temp. Dew Point Humidity Pressure Visibility Wind Dir Wind Speed Gust Speed Precip Events Conditions
12:15 AM 67.8 °F 38.3 °F 34% 30.10 in 10.0 mi Calm Calm - N/A   Clear
12:35 AM 69.1 °F 38.5 °F 33% 30.10 in 10.0 mi Calm Calm - N/A   Clear
12:55 AM 67.3 °F 38.5 °F 35% 30.10 in 10.0 mi West 5.8 mph - N/A   Clear
1:15 AM 67.8 °F 38.7 °F 34% 30.10 in 10.0 mi WSW 5.8 mph - N/A   Clear
1:35 AM 64.0 °F 37.6 °F 38% 30.11 in 10.0 mi Calm Calm - N/A   Clear
1:55 AM 65.3 °F 38.7 °F 38% 30.11 in 10.0 mi WSW 3.5 mph - N/A   Clear
2:15 AM 63.5 °F 38.7 °F 40% 30.11 in 10.0 mi Calm Calm - N/A   Clear
2:35 AM 64.4 °F 38.7 °F 39% 30.11 in 10.0 mi WSW 3.5 mph - N/A   Clear
2:55 AM 65.1 °F 38.7 °F 38% 30.11 in 10.0 mi WSW 3.5 mph - N/A   Clear
3:15 AM 63.0 °F 38.8 °F 41% 30.12 in 10.0 mi Calm Calm - N/A   Clear
3:35 AM 62.2 °F 38.7 °F 42% 30.12 in 10.0 mi Calm Calm - N/A   Clear
3:55 AM 60.8 °F 37.9 °F 43% 30.12 in 10.0 mi Calm Calm - N/A   Clear
4:15 AM 60.3 °F 37.2 °F 42% 30.12 in 10.0 mi Calm Calm - N/A   Clear
4:35 AM 55.6 °F 37.0 °F 50% 30.12 in 10.0 mi Calm Calm - N/A   Clear
4:55 AM 55.2 °F 37.4 °F 51% 30.12 in 10.0 mi Calm Calm - N/A   Clear
5:15 AM 56.8 °F 37.8 °F 49% 30.12 in 10.0 mi ESE 8.1 mph - N/A   Clear
5:35 AM 56.3 °F 37.8 °F 50% 30.12 in 10.0 mi East 8.1 mph - N/A   Clear
5:55 AM 56.3 °F 37.9 °F 50% 30.12 in 10.0 mi ESE 9.2 mph - N/A   Clear
6:15 AM 56.5 °F 38.5 °F 51% 30.13 in 10.0 mi East 9.2 mph - N/A   Clear
6:35 AM 57.4 °F 37.9 °F 48% 30.13 in 10.0 mi ESE 10.4 mph - N/A   Clear
6:55 AM 56.7 °F 37.9 °F 50% 30.13 in 10.0 mi East 9.2 mph - N/A   Clear
7:15 AM 58.8 °F 38.5 °F 47% 30.14 in 10.0 mi ESE 8.1 mph - N/A   Clear
7:35 AM 60.1 °F 39.2 °F 46% 30.14 in 10.0 mi ESE 6.9 mph - N/A   Clear
7:55 AM 61.2 °F 38.5 °F 43% 30.14 in 10.0 mi ESE 10.4 mph - N/A   Clear
8:15 AM 63.1 °F 38.8 °F 41% 30.14 in 10.0 mi ESE 6.9 mph - N/A   Clear
8:35 AM 65.7 °F 39.6 °F 38% 30.14 in 10.0 mi East 4.6 mph - N/A   Clear
8:55 AM 68.0 °F 40.1 °F 36% 30.13 in 10.0 mi East 3.5 mph - N/A   Clear
9:15 AM 69.8 °F 38.1 °F 31% 30.13 in 10.0 mi SW 3.5 mph - N/A   Clear
9:35 AM 72.0 °F 38.8 °F 30% 30.12 in 10.0 mi NNW 3.5 mph - N/A   Clear
9:55 AM 73.6 °F 37.9 °F 27% 30.12 in 10.0 mi WNW 3.5 mph - N/A   Clear
10:15 AM 74.7 °F 36.3 °F 25% 30.11 in 10.0 mi West 5.8 mph - N/A   Clear
10:35 AM 76.1 °F 33.3 °F 21% 30.11 in 10.0 mi West 5.8 mph - N/A   Clear
10:55 AM 76.8 °F 29.8 °F 18% 30.11 in 10.0 mi WNW 5.8 mph - N/A   Clear
11:15 AM 77.2 °F 28.6 °F 17% 30.10 in 10.0 mi West 3.5 mph - N/A   Clear
11:35 AM 78.4 °F 27.0 °F 15% 30.10 in 10.0 mi WNW 3.5 mph - N/A   Clear
11:55 AM 79.2 °F 26.8 °F 15% 30.09 in 10.0 mi NW 3.5 mph - N/A   Clear
12:15 PM 81.3 °F 29.3 °F 15% 30.08 in 10.0 mi WNW 4.6 mph - N/A   Clear
12:35 PM 81.5 °F 29.3 °F 15% 30.07 in 10.0 mi Calm Calm - N/A   Clear
12:55 PM 83.1 °F 32.4 °F 16% 30.07 in 7.0 mi NW 8.1 mph - N/A   Clear
1:15 PM 84.2 °F 32.4 °F 15% 30.06 in 7.0 mi WNW 8.1 mph - N/A   Clear
1:35 PM 84.7 °F 32.2 °F 15% 30.05 in 5.0 mi West 5.8 mph - N/A   Haze
1:55 PM 86.0 °F 31.8 °F 14% 30.05 in 7.0 mi West 5.8 mph - N/A   Clear
2:15 PM 86.2 °F 32.0 °F 14% 30.04 in 5.0 mi WNW 5.8 mph - N/A   Haze
2:35 PM 86.7 °F 32.5 °F 14% 30.03 in 4.0 mi West 4.6 mph 9.2 mph N/A   Haze
2:55 PM 87.4 °F 32.7 °F 14% 30.03 in 4.0 mi West 10.4 mph - N/A   Haze
3:15 PM 87.8 °F 32.4 °F 14% 30.01 in 4.0 mi West 8.1 mph - N/A   Haze
3:35 PM 86.9 °F 32.0 °F 14% 30.01 in 4.0 mi WNW 8.1 mph - N/A   Haze
3:55 PM 88.0 °F 32.2 °F 14% 30.00 in 4.0 mi WNW 11.5 mph - N/A   Haze
4:15 PM 87.8 °F 32.0 °F 14% 30.00 in 4.0 mi West 11.5 mph - N/A   Haze
4:35 PM 87.6 °F 31.8 °F 14% 29.99 in 5.0 mi West 11.5 mph - N/A   Haze
4:55 PM 87.3 °F 31.5 °F 14% 29.99 in 5.0 mi West 12.7 mph - N/A   Haze
5:15 PM 86.5 °F 31.5 °F 14% 29.99 in 5.0 mi West 10.4 mph - N/A   Haze
5:35 PM 86.0 °F 31.6 °F 14% 29.99 in 5.0 mi West 9.2 mph - N/A   Haze
5:55 PM 84.6 °F 31.5 °F 15% 29.99 in 7.0 mi WNW 8.1 mph - N/A   Clear
6:15 PM 84.0 °F 31.8 °F 15% 29.99 in 7.0 mi WNW 5.8 mph - N/A   Clear
6:35 PM 83.3 °F 29.1 °F 14% 29.99 in 10.0 mi NNW 4.6 mph - N/A   Clear
6:55 PM 81.9 °F 29.1 °F 15% 29.99 in 10.0 mi Calm Calm - N/A   Clear
7:15 PM 80.1 °F 28.9 °F 15% 29.99 in 10.0 mi NNE 3.5 mph - N/A   Clear
7:35 PM 79.3 °F 28.9 °F 16% 29.99 in 10.0 mi Calm Calm - N/A   Clear
7:55 PM 81.1 °F 29.1 °F 15% 29.99 in 10.0 mi Calm Calm - N/A   Clear
8:15 PM 79.3 °F 29.5 °F 16% 29.99 in 10.0 mi East 4.6 mph - N/A   Clear
8:35 PM 79.2 °F 28.6 °F 16% 30.01 in 10.0 mi North 4.6 mph - N/A   Clear
8:55 PM 78.1 °F 29.1 °F 17% 30.02 in 10.0 mi Calm Calm - N/A   Clear
9:15 PM 75.9 °F 29.1 °F 18% 30.03 in 10.0 mi West 3.5 mph - N/A   Clear
9:35 PM 75.6 °F 29.3 °F 18% 30.03 in 10.0 mi Calm Calm - N/A   Clear
9:55 PM 74.7 °F 29.8 °F 19% 30.04 in 10.0 mi North 4.6 mph - N/A   Clear
10:15 PM 73.9 °F 30.0 °F 20% 30.04 in 10.0 mi NW 5.8 mph - N/A   Clear
10:35 PM 70.5 °F 31.1 °F 23% 30.04 in 10.0 mi NW 5.8 mph - N/A   Clear
10:55 PM 70.7 °F 31.1 °F 23% 30.05 in 10.0 mi NNW 8.1 mph - N/A   Clear
11:15 PM 70.0 °F 31.8 °F 24% 30.05 in 10.0 mi NNW 6.9 mph - N/A   Clear
11:35 PM 70.0 °F 31.5 °F 24% 30.05 in 10.0 mi NNW 3.5 mph - N/A   Clear
11:55 PM 69.6 °F 31.6 °F 24% 30.06 in 10.0 mi Calm Calm - N/A   Clear